createdAt,value
2023-03-08T00:00:14.259Z,99404.72
2023-03-08T00:02:40.566Z,99404.72
2023-03-08T00:05:07.401Z,99408.66
2023-03-08T00:07:34.122Z,99400.72
2023-03-08T00:10:00.706Z,99410.16
2023-03-08T00:12:28.049Z,99403.81
2023-03-08T00:14:54.546Z,99397.97
2023-03-08T00:17:21.045Z,99396.78
2023-03-08T00:19:47.521Z,99402.31
2023-03-08T00:22:13.783Z,99402.31
2023-03-08T00:24:40.119Z,99404.72
2023-03-08T00:27:06.430Z,99395.63
2023-03-08T00:29:32.709Z,99400.38
2023-03-08T00:31:59.028Z,99403.94
2023-03-08T00:34:25.544Z,99401.97
2023-03-08T00:36:51.905Z,99408.31
2023-03-08T00:39:18.363Z,99399.56
2023-03-08T00:41:44.854Z,99402.66
2023-03-08T00:44:11.144Z,99399.09
2023-03-08T00:46:37.384Z,99394.72
2023-03-08T00:49:05.006Z,99400.25
2023-03-08T00:51:31.320Z,99393.13
2023-03-08T00:53:57.786Z,99391.50
2023-03-08T00:56:24.261Z,99392.69
2023-03-08T00:58:50.774Z,99389.44
2023-03-08T01:01:18.521Z,99390.59
2023-03-08T01:03:44.919Z,99393.72
2023-03-08T01:06:12.776Z,99396.00
2023-03-08T01:08:41.945Z,99394.75
2023-03-08T01:11:14.466Z,99387.97
2023-03-08T01:13:40.962Z,99386.34
2023-03-08T01:16:14.279Z,99389.00
2023-03-08T01:18:40.650Z,99388.56
2023-03-08T01:21:06.972Z,99386.47
2023-03-08T01:23:33.308Z,99381.31
2023-03-08T01:26:00.392Z,99370.94
2023-03-08T01:28:26.845Z,99375.66
2023-03-08T01:30:53.320Z,99367.75
2023-03-08T01:33:21.147Z,99366.94
2023-03-08T01:35:48.032Z,99362.91
2023-03-08T01:38:15.753Z,99359.69
2023-03-08T01:40:42.231Z,99359.56
2023-03-08T01:43:32.062Z,99352.31
2023-03-08T01:46:17.415Z,99352.22
2023-03-08T01:48:47.597Z,99358.44
2023-03-08T01:51:16.934Z,99350.50
2023-03-08T01:53:44.226Z,99347.28
2023-03-08T01:56:12.965Z,99346.81
2023-03-08T01:58:42.019Z,99337.69
2023-03-08T02:01:08.398Z,99341.59
2023-03-08T02:03:34.750Z,99337.25
2023-03-08T02:06:01.685Z,99331.28
2023-03-08T02:08:27.951Z,99327.22
2023-03-08T02:10:54.494Z,99326.44
2023-03-08T02:13:21.493Z,99323.66
2023-03-08T02:15:49.030Z,99320.44
2023-03-08T02:18:15.326Z,99314.47
2023-03-08T02:20:42.375Z,99312.88
2023-03-08T02:23:19.470Z,99307.34
2023-03-08T02:25:53.169Z,99308.50
2023-03-08T02:28:24.317Z,99304.59
2023-03-08T02:30:53.752Z,99297.91
2023-03-08T02:33:20.281Z,99292.38
2023-03-08T02:35:46.706Z,99302.63
2023-03-08T02:38:13.908Z,99296.28
2023-03-08T02:40:40.447Z,99295.94
2023-03-08T02:43:06.848Z,99286.06
2023-03-08T02:45:34.078Z,99280.19
2023-03-08T02:48:01.328Z,99280.66
2023-03-08T02:50:27.946Z,99279.50
2023-03-08T02:52:54.487Z,99270.84
2023-03-08T02:55:21.001Z,99271.31
2023-03-08T02:57:47.301Z,99276.13
2023-03-08T03:00:13.978Z,99278.59
2023-03-08T03:02:40.623Z,99279.84
2023-03-08T03:05:10.865Z,99275.13
2023-03-08T03:07:38.836Z,99272.84
2023-03-08T03:10:06.223Z,99266.94
2023-03-08T03:12:33.209Z,99281.56
2023-03-08T03:15:01.141Z,99263.03
2023-03-08T03:17:27.642Z,99269.72
2023-03-08T03:19:53.981Z,99268.56
2023-03-08T03:22:20.313Z,99272.13
2023-03-08T03:24:46.612Z,99270.16
2023-03-08T03:27:12.834Z,99274.19
2023-03-08T03:29:39.322Z,99266.34
2023-03-08T03:32:05.790Z,99264.06
2023-03-08T03:34:32.091Z,99265.66
2023-03-08T03:36:58.578Z,99261.72
2023-03-08T03:39:24.959Z,99265.78
2023-03-08T03:41:51.331Z,99269.78
2023-03-08T03:44:17.684Z,99274.13
2023-03-08T03:46:44.202Z,99270.69
2023-03-08T03:49:10.704Z,99269.19
2023-03-08T03:51:37.985Z,99257.44
2023-03-08T03:54:06.469Z,99259.03
2023-03-08T03:56:33.832Z,99263.44
2023-03-08T03:59:00.124Z,99258.69
2023-03-08T04:01:30.702Z,99258.69
2023-03-08T04:03:57.766Z,99262.25
2023-03-08T04:06:25.596Z,99268.94
2023-03-08T04:08:52.507Z,99259.13
2023-03-08T04:11:20.980Z,99256.00
2023-03-08T04:13:47.443Z,99250.50
2023-03-08T04:16:18.930Z,99244.28
2023-03-08T04:18:45.617Z,99245.88
2023-03-08T04:21:11.992Z,99237.25
2023-03-08T04:23:38.327Z,99240.81
2023-03-08T04:26:05.226Z,99234.13
2023-03-08T04:28:31.840Z,99219.94
2023-03-08T04:30:58.129Z,99215.22
2023-03-08T04:33:24.677Z,99208.88
2023-03-08T04:35:51.513Z,99213.25
2023-03-08T04:38:17.992Z,99207.72
2023-03-08T04:41:02.269Z,99210.50
2023-03-08T04:43:28.941Z,99207.41
2023-03-08T04:45:55.236Z,99199.91
2023-03-08T04:48:21.536Z,99194.75
2023-03-08T04:50:55.207Z,99194.00
2023-03-08T04:53:22.934Z,99191.72
2023-03-08T04:55:49.576Z,99181.78
2023-03-08T04:58:15.908Z,99183.06
2023-03-08T05:00:42.486Z,99171.22
2023-03-08T05:03:09.190Z,99174.78
2023-03-08T05:05:35.938Z,99172.00
2023-03-08T05:08:04.236Z,99168.44
2023-03-08T05:10:33.477Z,99170.84
2023-03-08T05:13:00.799Z,99161.75
2023-03-08T05:15:27.299Z,99154.63
2023-03-08T05:17:53.522Z,99153.81
2023-03-08T05:20:19.894Z,99152.66
2023-03-08T05:22:57.975Z,99147.03
2023-03-08T05:25:25.500Z,99149.78
2023-03-08T05:27:51.730Z,99143.47
2023-03-08T05:30:18.165Z,99144.63
2023-03-08T05:32:44.427Z,99133.22
2023-03-08T05:35:10.681Z,99135.19
2023-03-08T05:37:36.900Z,99134.00
2023-03-08T05:40:05.895Z,99131.72
2023-03-08T05:42:32.658Z,99134.47
2023-03-08T05:45:00.400Z,99125.03
2023-03-08T05:47:27.435Z,99128.59
2023-03-08T05:49:53.717Z,99117.53
2023-03-08T05:52:20.030Z,99119.13
2023-03-08T05:54:47.854Z,99104.50
2023-03-08T05:57:14.327Z,99106.09
2023-03-08T05:59:40.616Z,99107.75
2023-03-08T06:02:07.128Z,99095.50
2023-03-08T06:04:33.603Z,99091.59
2023-03-08T06:07:00.095Z,99078.56
2023-03-08T06:09:26.386Z,99081.34
2023-03-08T06:11:52.898Z,99077.34
2023-03-08T06:14:19.136Z,99079.81
2023-03-08T06:16:48.344Z,99082.22
2023-03-08T06:19:15.233Z,99075.53
2023-03-08T06:21:41.640Z,99076.31
2023-03-08T06:24:08.047Z,99070.47
2023-03-08T06:26:34.701Z,99067.69
2023-03-08T06:29:01.040Z,99063.78
2023-03-08T06:31:27.398Z,99062.59
2023-03-08T06:33:53.671Z,99064.19
2023-03-08T06:36:20.797Z,99060.25
2023-03-08T06:38:48.022Z,99064.66
2023-03-08T06:41:15.398Z,99062.69
2023-03-08T06:43:41.940Z,99048.06
2023-03-08T06:46:13.140Z,99050.84
2023-03-08T06:48:39.484Z,99048.06
2023-03-08T06:51:06.090Z,99043.69
2023-03-08T06:53:33.016Z,99042.88
2023-03-08T06:56:03.100Z,99044.84
2023-03-08T06:58:29.350Z,99041.66
2023-03-08T07:00:55.594Z,99034.53
2023-03-08T07:03:22.950Z,99026.94
2023-03-08T07:05:49.195Z,99033.63
2023-03-08T07:08:15.436Z,99026.06
2023-03-08T07:10:41.736Z,99027.59
2023-03-08T07:13:08.241Z,99018.84
2023-03-08T07:15:34.778Z,99022.34
2023-03-08T07:18:01.017Z,99017.88
2023-03-08T07:20:27.866Z,99020.53
2023-03-08T07:22:54.259Z,99023.59
2023-03-08T07:25:20.860Z,99022.69
2023-03-08T07:27:47.607Z,99019.03
2023-03-08T07:30:15.361Z,99016.97
2023-03-08T07:32:44.945Z,99022.44
2023-03-08T07:35:12.933Z,99016.38
2023-03-08T07:37:39.510Z,99008.00
2023-03-08T07:40:06.629Z,99015.00
2023-03-08T07:42:32.885Z,99009.84
2023-03-08T07:44:59.293Z,99005.81
2023-03-08T07:47:25.565Z,98999.06
2023-03-08T07:49:51.968Z,99000.66
2023-03-08T07:52:18.303Z,99005.38
2023-03-08T07:54:44.529Z,98995.16
2023-03-08T07:57:14.371Z,99001.47
2023-03-08T07:59:41.121Z,98997.91
2023-03-08T08:02:10.810Z,98992.03
2023-03-08T08:04:37.276Z,98986.84
2023-03-08T08:07:05.123Z,98992.38
2023-03-08T08:09:31.690Z,98986.50
2023-03-08T08:11:58.166Z,98988.47
2023-03-08T08:14:24.519Z,98978.56
2023-03-08T08:16:51.827Z,98977.78
2023-03-08T08:19:19.118Z,98980.53
2023-03-08T08:21:46.403Z,98975.38
2023-03-08T08:24:12.722Z,98971.81
2023-03-08T08:26:39.044Z,98963.53
2023-03-08T08:29:05.470Z,98952.81
2023-03-08T08:31:32.101Z,98948.09
2023-03-08T08:33:59.326Z,98947.31
2023-03-08T08:36:25.865Z,98942.56
2023-03-08T08:38:52.323Z,98948.09
2023-03-08T08:41:19.871Z,98940.97
2023-03-08T08:43:46.713Z,98936.25
2023-03-08T08:46:13.742Z,98936.25
2023-03-08T08:48:40.259Z,98929.13
2023-03-08T08:51:07.519Z,98930.72
2023-03-08T08:53:34.337Z,98928.34
2023-03-08T08:56:20.241Z,98927.91
2023-03-08T08:58:52.030Z,98917.53
2023-03-08T09:01:20.051Z,98909.63
2023-03-08T09:03:46.903Z,98908.00
2023-03-08T09:06:13.913Z,98906.75
2023-03-08T09:08:40.298Z,98905.97
2023-03-08T09:11:07.610Z,98898.03
2023-03-08T09:13:34.471Z,98893.66
2023-03-08T09:16:01.015Z,98892.88
2023-03-08T09:18:27.516Z,98884.94
2023-03-08T09:20:53.903Z,98884.50
2023-03-08T09:23:20.355Z,98880.13
2023-03-08T09:25:54.481Z,98874.97
2023-03-08T09:28:20.741Z,98880.88
2023-03-08T09:30:47.003Z,98879.59
2023-03-08T09:33:13.281Z,98873.97
2023-03-08T09:35:39.807Z,98869.19
2023-03-08T09:38:06.150Z,98864.38
2023-03-08T09:40:37.544Z,98857.63
2023-03-08T09:43:05.217Z,98854.31
2023-03-08T09:45:31.595Z,98841.59
2023-03-08T09:48:06.765Z,98837.59
2023-03-08T09:50:44.052Z,98844.97
2023-03-08T09:53:10.256Z,98843.75
2023-03-08T09:55:38.406Z,98836.97
2023-03-08T09:58:23.046Z,98840.41
2023-03-08T10:00:49.575Z,98851.47
2023-03-08T10:03:36.930Z,98847.47
2023-03-08T10:06:32.678Z,98845.88
2023-03-08T10:09:01.755Z,98839.88
2023-03-08T10:11:44.234Z,98837.94
2023-03-08T10:14:22.832Z,98827.25
2023-03-08T10:16:52.564Z,98821.75
2023-03-08T10:19:26.717Z,98814.28
2023-03-08T10:21:53.980Z,98808.38
2023-03-08T10:24:27.297Z,98806.44
2023-03-08T10:27:12.425Z,98795.41
2023-03-08T10:29:38.658Z,98805.28
2023-03-08T10:32:05.113Z,98810.00
2023-03-08T10:34:32.544Z,98813.56
2023-03-08T10:37:01.038Z,98810.00
2023-03-08T10:39:27.368Z,98803.34
2023-03-08T10:41:56.158Z,98797.44
2023-03-08T10:44:34.044Z,98799.41
2023-03-08T10:47:01.932Z,98781.69
2023-03-08T10:49:28.223Z,98780.91
2023-03-08T10:52:01.087Z,98771.47
2023-03-08T10:54:28.296Z,98765.94
2023-03-08T10:56:59.169Z,98758.03
2023-03-08T10:59:34.573Z,98759.19
2023-03-08T11:02:12.810Z,98749.75
2023-03-08T11:04:49.868Z,98740.69
2023-03-08T11:07:24.244Z,98738.63
2023-03-08T11:09:52.685Z,98754.03
2023-03-08T11:12:26.062Z,98761.16
2023-03-08T11:14:52.705Z,98760.78
2023-03-08T11:17:37.549Z,98763.91
2023-03-08T11:20:10.571Z,98769.50
2023-03-08T11:22:44.993Z,98763.66
2023-03-08T11:25:19.957Z,98769.16
2023-03-08T11:27:49.387Z,98767.19
2023-03-08T11:30:18.589Z,98763.75
2023-03-08T11:33:04.218Z,98766.56
2023-03-08T11:35:45.878Z,98747.72
2023-03-08T11:38:17.780Z,98750.47
2023-03-08T11:40:46.828Z,98754.13
2023-03-08T11:43:21.349Z,98743.50
2023-03-08T11:46:01.870Z,98742.81
2023-03-08T11:48:47.103Z,98718.41
2023-03-08T11:51:13.436Z,98717.31
2023-03-08T11:53:48.744Z,98713.84
2023-03-08T11:56:38.565Z,98718.19
2023-03-08T11:59:10.892Z,98719.44
2023-03-08T12:02:03.699Z,98723.44
2023-03-08T12:04:43.655Z,98715.16
2023-03-08T12:07:18.015Z,98734.13
2023-03-08T12:10:02.079Z,98729.75
2023-03-08T12:12:31.481Z,98732.50
2023-03-08T12:15:07.655Z,98735.28
2023-03-08T12:17:40.593Z,98713.84
2023-03-08T12:20:12.971Z,98714.28
2023-03-08T12:23:13.367Z,98718.19
2023-03-08T12:25:41.573Z,98692.56
2023-03-08T12:28:18.158Z,98693.00
2023-03-08T12:30:53.535Z,98691.41
2023-03-08T12:33:20.272Z,98704.03
2023-03-08T12:35:51.615Z,98700.91
2023-03-08T12:38:18.049Z,98710.34
2023-03-08T12:40:47.047Z,98710.34
2023-03-08T12:43:19.480Z,98709.19
2023-03-08T12:45:48.557Z,98698.59
2023-03-08T12:48:18.294Z,98695.84
2023-03-08T12:50:58.051Z,98691.13
2023-03-08T12:53:39.056Z,98685.22
2023-03-08T12:56:07.122Z,98673.84
2023-03-08T12:58:35.038Z,98673.91
2023-03-08T13:01:03.168Z,98679.06
2023-03-08T13:03:41.308Z,98676.31
2023-03-08T13:06:16.722Z,98662.56
2023-03-08T13:08:49.032Z,98650.81
2023-03-08T13:11:16.954Z,98654.00
2023-03-08T13:13:56.191Z,98664.31
2023-03-08T13:16:32.218Z,98663.63
2023-03-08T13:19:06.582Z,98662.09
2023-03-08T13:21:38.523Z,98657.44
2023-03-08T13:24:13.826Z,98653.97
2023-03-08T13:26:57.919Z,98664.63
2023-03-08T13:29:29.390Z,98679.25
2023-03-08T13:31:55.927Z,98666.69
2023-03-08T13:34:27.092Z,98661.59
2023-03-08T13:36:55.707Z,98652.56
2023-03-08T13:39:23.484Z,98661.28
2023-03-08T13:41:49.845Z,98666.88
2023-03-08T13:44:23.908Z,98654.28
2023-03-08T13:46:52.735Z,98651.97
2023-03-08T13:49:24.113Z,98635.03
2023-03-08T13:51:53.920Z,98626.38
2023-03-08T13:54:29.162Z,98635.47
2023-03-08T13:56:56.600Z,98636.28
2023-03-08T13:59:25.287Z,98639.84
2023-03-08T14:01:52.849Z,98635.91
2023-03-08T14:04:26.748Z,98635.09
2023-03-08T14:06:54.393Z,98626.44
2023-03-08T14:09:21.300Z,98620.13
2023-03-08T14:11:55.474Z,98620.91
2023-03-08T14:14:40.747Z,98623.69
2023-03-08T14:17:07.545Z,98613.44
2023-03-08T14:19:35.322Z,98600.41
2023-03-08T14:22:03.748Z,98598.44
2023-03-08T14:24:34.436Z,98609.50
2023-03-08T14:27:06.676Z,98615.00
2023-03-08T14:29:34.536Z,98603.97
2023-03-08T14:32:06.187Z,98603.63
2023-03-08T14:34:35.954Z,98594.94
2023-03-08T14:37:25.602Z,98584.69
2023-03-08T14:39:53.504Z,98596.53
2023-03-08T14:42:52.235Z,98592.25
2023-03-08T14:45:21.725Z,98590.72
2023-03-08T14:47:49.173Z,98583.66
2023-03-08T14:50:23.476Z,98583.72
2023-03-08T14:52:51.273Z,98590.91
2023-03-08T14:55:35.305Z,98580.28
2023-03-08T14:58:03.206Z,98587.03
2023-03-08T15:00:30.141Z,98591.03
2023-03-08T15:03:00.207Z,98589.84
2023-03-08T15:05:29.531Z,98580.81
2023-03-08T15:07:57.394Z,98576.88
2023-03-08T15:10:23.651Z,98570.97
2023-03-08T15:12:49.899Z,98569.47
2023-03-08T15:15:16.193Z,98559.19
2023-03-08T15:17:42.602Z,98544.56
2023-03-08T15:20:10.926Z,98543.78
2023-03-08T15:22:42.352Z,98551.28
2023-03-08T15:25:19.385Z,98552.44
2023-03-08T15:27:48.212Z,98550.03
2023-03-08T15:30:19.712Z,98555.16
2023-03-08T15:32:46.630Z,98555.16
2023-03-08T15:35:13.371Z,98555.50
2023-03-08T15:37:39.851Z,98559.09
2023-03-08T15:40:08.373Z,98564.63
2023-03-08T15:42:35.025Z,98568.19
2023-03-08T15:45:01.569Z,98571.75
2023-03-08T15:47:27.828Z,98574.50
2023-03-08T15:49:55.258Z,98578.44
2023-03-08T15:52:23.338Z,98573.25
2023-03-08T15:54:51.173Z,98586.28
2023-03-08T15:57:17.742Z,98577.19
2023-03-08T15:59:44.228Z,98567.72
2023-03-08T16:02:15.275Z,98563.38
2023-03-08T16:04:45.807Z,98566.94
2023-03-08T16:07:13.722Z,98569.72
2023-03-08T16:09:47.125Z,98584.31
2023-03-08T16:12:14.634Z,98577.19
2023-03-08T16:14:45.853Z,98579.97
2023-03-08T16:17:12.219Z,98570.88
2023-03-08T16:19:38.459Z,98571.28
2023-03-08T16:22:05.059Z,98576.03
2023-03-08T16:24:31.294Z,98573.25
2023-03-08T16:26:59.496Z,98574.06
2023-03-08T16:29:26.893Z,98579.59
2023-03-08T16:31:53.179Z,98568.53
2023-03-08T16:34:21.979Z,98565.75
2023-03-08T16:36:48.259Z,98572.09
2023-03-08T16:39:14.968Z,98573.25
2023-03-08T16:41:41.362Z,98574.06
2023-03-08T16:44:19.568Z,98576.81
2023-03-08T16:46:48.255Z,98580.38
2023-03-08T16:49:15.369Z,98584.75
2023-03-08T16:51:42.867Z,98581.22
2023-03-08T16:54:11.014Z,98574.84
2023-03-08T16:56:40.406Z,98568.97
2023-03-08T16:59:06.713Z,98566.22
2023-03-08T17:01:34.977Z,98564.25
2023-03-08T17:04:01.327Z,98563.06
2023-03-08T17:06:29.531Z,98576.88
2023-03-08T17:08:56.729Z,98582.84
2023-03-08T17:11:27.375Z,98580.09
2023-03-08T17:13:58.208Z,98582.03
2023-03-08T17:16:25.651Z,98570.97
2023-03-08T17:18:52.618Z,98570.97
2023-03-08T17:21:20.844Z,98566.28
2023-03-08T17:23:47.875Z,98566.28
2023-03-08T17:26:14.681Z,98570.19
2023-03-08T17:28:41.664Z,98573.31
2023-03-08T17:31:08.874Z,98564.63
2023-03-08T17:33:35.744Z,98568.53
2023-03-08T17:36:02.204Z,98559.44
2023-03-08T17:38:28.875Z,98560.25
2023-03-08T17:40:55.357Z,98558.66
2023-03-08T17:43:21.691Z,98555.09
2023-03-08T17:45:58.384Z,98552.31
2023-03-08T17:48:27.181Z,98538.50
2023-03-08T17:50:54.158Z,98540.47
2023-03-08T17:53:22.065Z,98536.91
2023-03-08T17:55:50.594Z,98538.88
2023-03-08T17:58:16.886Z,98528.19
2023-03-08T18:00:43.794Z,98549.50
2023-03-08T18:03:12.716Z,98557.00
2023-03-08T18:05:47.016Z,98558.97
2023-03-08T18:08:13.306Z,98572.00
2023-03-08T18:10:39.616Z,98568.44
2023-03-08T18:13:07.322Z,98568.44
2023-03-08T18:15:33.972Z,98574.34
2023-03-08T18:18:00.352Z,98573.94
2023-03-08T18:20:26.652Z,98569.22
2023-03-08T18:22:52.900Z,98570.81
2023-03-08T18:25:20.416Z,98567.69
2023-03-08T18:27:49.864Z,98569.28
2023-03-08T18:30:16.431Z,98573.25
2023-03-08T18:32:42.774Z,98570.94
2023-03-08T18:35:09.399Z,98561.47
2023-03-08T18:37:35.964Z,98562.66
2023-03-08T18:40:02.473Z,98561.84
2023-03-08T18:42:29.520Z,98561.84
2023-03-08T18:44:56.939Z,98556.69
2023-03-08T18:47:23.637Z,98550.34
2023-03-08T18:49:50.123Z,98556.25
2023-03-08T18:52:18.637Z,98559.41
2023-03-08T18:54:44.925Z,98552.63
2023-03-08T18:57:11.374Z,98549.47
2023-03-08T18:59:37.665Z,98555.72
2023-03-08T19:02:04.218Z,98543.88
2023-03-08T19:04:30.699Z,98551.72
2023-03-08T19:06:57.995Z,98552.09
2023-03-08T19:09:24.328Z,98548.53
2023-03-08T19:11:50.796Z,98535.09
2023-03-08T19:14:17.428Z,98533.13
2023-03-08T19:16:44.084Z,98539.84
2023-03-08T19:19:15.255Z,98540.97
2023-03-08T19:21:43.387Z,98538.59
2023-03-08T19:24:13.429Z,98541.72
2023-03-08T19:26:41.325Z,98543.69
2023-03-08T19:29:12.799Z,98531.03
2023-03-08T19:31:41.081Z,98534.16
2023-03-08T19:34:08.756Z,98527.84
2023-03-08T19:36:35.584Z,98527.84
2023-03-08T19:39:02.716Z,98517.97
2023-03-08T19:41:29.038Z,98521.91
2023-03-08T19:43:56.337Z,98524.66
2023-03-08T19:46:22.766Z,98529.03
2023-03-08T19:48:49.292Z,98520.75
2023-03-08T19:51:18.980Z,98530.63
2023-03-08T19:53:45.195Z,98530.22
2023-03-08T19:56:15.979Z,98525.50
2023-03-08T19:58:42.445Z,98528.25
2023-03-08T20:01:09.593Z,98513.66
2023-03-08T20:03:36.130Z,98523.91
2023-03-08T20:06:04.316Z,98522.31
2023-03-08T20:08:31.014Z,98518.78
2023-03-08T20:10:57.240Z,98515.63
2023-03-08T20:13:23.602Z,98515.63
2023-03-08T20:15:49.869Z,98497.84
2023-03-08T20:18:16.406Z,98488.75
2023-03-08T20:20:44.482Z,98504.88
2023-03-08T20:23:10.792Z,98504.50
2023-03-08T20:25:38.164Z,98502.56
2023-03-08T20:28:04.823Z,98506.47
2023-03-08T20:30:31.232Z,98515.56
2023-03-08T20:32:57.624Z,98513.63
2023-03-08T20:35:25.314Z,98512.78
2023-03-08T20:37:51.700Z,98511.22
2023-03-08T20:40:20.740Z,98508.44
2023-03-08T20:42:47.296Z,98521.91
2023-03-08T20:45:15.012Z,98507.28
2023-03-08T20:47:41.523Z,98502.56
2023-03-08T20:50:08.239Z,98503.38
2023-03-08T20:52:35.648Z,98505.75
2023-03-08T20:55:02.597Z,98502.97
2023-03-08T20:57:28.828Z,98499.44
2023-03-08T20:59:55.501Z,98497.47
2023-03-08T21:02:22.019Z,98495.88
2023-03-08T21:04:48.495Z,98501.41
2023-03-08T21:07:14.882Z,98493.47
2023-03-08T21:09:43.141Z,98494.63
2023-03-08T21:12:09.863Z,98478.44
2023-03-08T21:14:36.694Z,98480.41
2023-03-08T21:17:05.222Z,98470.09
2023-03-08T21:19:31.509Z,98464.94
2023-03-08T21:21:57.870Z,98467.25
2023-03-08T21:24:24.259Z,98469.59
2023-03-08T21:26:51.889Z,98472.31
2023-03-08T21:29:18.925Z,98464.00
2023-03-08T21:31:48.460Z,98461.63
2023-03-08T21:34:16.482Z,98467.16
2023-03-08T21:36:43.090Z,98473.06
2023-03-08T21:39:09.648Z,98466.75
2023-03-08T21:41:38.099Z,98453.28
2023-03-08T21:44:06.018Z,98446.16
2023-03-08T21:46:33.753Z,98458.38
2023-03-08T21:49:00.160Z,98455.19
2023-03-08T21:51:26.671Z,98459.91
2023-03-08T21:53:54.372Z,98461.88
2023-03-08T21:56:20.612Z,98454.78
2023-03-08T21:58:47.103Z,98450.84
2023-03-08T22:01:17.494Z,98446.88
2023-03-08T22:03:43.742Z,98433.06
2023-03-08T22:06:10.149Z,98426.75
2023-03-08T22:08:36.431Z,98432.25
2023-03-08T22:11:02.725Z,98425.91
2023-03-08T22:13:29.046Z,98435.81
2023-03-08T22:15:55.684Z,98432.25
2023-03-08T22:18:21.972Z,98431.09
2023-03-08T22:20:48.719Z,98424.41
2023-03-08T22:23:17.572Z,98425.56
2023-03-08T22:25:43.880Z,98418.88
2023-03-08T22:28:10.391Z,98410.59
2023-03-08T22:30:39.388Z,98402.72
2023-03-08T22:33:07.889Z,98407.44
2023-03-08T22:35:34.444Z,98402.72
2023-03-08T22:38:01.195Z,98396.84
2023-03-08T22:40:27.464Z,98398.81
2023-03-08T22:42:54.001Z,98392.13
2023-03-08T22:45:20.294Z,98394.09
2023-03-08T22:47:46.775Z,98396.84
2023-03-08T22:50:14.588Z,98389.34
2023-03-08T22:52:40.833Z,98385.00
2023-03-08T22:55:07.425Z,98388.91
2023-03-08T22:57:35.774Z,98379.81
2023-03-08T23:00:02.365Z,98379.81
2023-03-08T23:02:30.314Z,98372.72
2023-03-08T23:04:57.908Z,98368.00
2023-03-08T23:07:24.181Z,98367.19
2023-03-08T23:09:51.054Z,98369.56
2023-03-08T23:12:17.592Z,98370.75
2023-03-08T23:14:45.573Z,98356.16
2023-03-08T23:17:11.857Z,98351.00
2023-03-08T23:19:38.304Z,98352.53
2023-03-08T23:22:04.607Z,98348.97
2023-03-08T23:24:30.856Z,98348.56
2023-03-08T23:27:02.801Z,98338.69
2023-03-08T23:29:29.174Z,98343.41
2023-03-08T23:31:55.861Z,98341.00
2023-03-08T23:34:22.519Z,98337.47
2023-03-08T23:36:49.421Z,98340.59
2023-03-08T23:39:15.926Z,98333.47
2023-03-08T23:41:42.417Z,98333.81
2023-03-08T23:44:10.056Z,98328.28
2023-03-08T23:46:36.366Z,98329.88
2023-03-08T23:49:04.328Z,98335.09
2023-03-08T23:51:32.152Z,98335.88
2023-03-08T23:53:59.450Z,98335.88
2023-03-08T23:56:37.691Z,98334.31
2023-03-08T23:59:09.958Z,98336.72
